Aviation Digital Data Service (ADDS)

Output produced by TAFs form (1637 UTC 18 April 2015)
found at http://aviationweather.gov/adds/tafs/
 
KTUS 181126Z 1812/1912 14008KT P6SM SKC 
     FM181900 30010G18KT P6SM SKC 
     FM190200 24005KT P6SM SKC 
     FM190700 14007KT P6SM SKC